createdAt,value
2023-02-18T00:00:20.247Z,49.91
2023-02-18T00:00:42.060Z,50.03
2023-02-18T00:01:08.552Z,49.91
2023-02-18T00:01:32.104Z,49.89
2023-02-18T00:01:55.173Z,49.97
2023-02-18T00:02:16.846Z,50.21
2023-02-18T00:02:38.632Z,50.36
2023-02-18T00:03:00.286Z,50.15
2023-02-18T00:03:24.516Z,50.29
2023-02-18T00:03:46.364Z,50.12
2023-02-18T00:04:08.032Z,49.93
2023-02-18T00:04:29.744Z,49.78
2023-02-18T00:04:55.191Z,49.82
2023-02-18T00:05:16.952Z,49.72
2023-02-18T00:05:38.592Z,49.59
2023-02-18T00:06:01.399Z,49.42
2023-02-18T00:06:25.706Z,49.39
2023-02-18T00:06:48.949Z,49.55
2023-02-18T00:07:10.673Z,49.42
2023-02-18T00:07:34.431Z,49.49
2023-02-18T00:07:56.083Z,49.38
2023-02-18T00:08:18.722Z,49.87
2023-02-18T00:08:40.822Z,49.88
2023-02-18T00:09:04.270Z,49.97
2023-02-18T00:09:26.911Z,50.60
2023-02-18T00:09:49.144Z,50.45
2023-02-18T00:10:13.199Z,50.75
2023-02-18T00:10:34.861Z,50.97
2023-02-18T00:10:57.539Z,51.05
2023-02-18T00:11:21.508Z,51.26
2023-02-18T00:11:43.410Z,51.33
2023-02-18T00:12:06.523Z,51.02
2023-02-18T00:12:29.945Z,51.00
2023-02-18T00:12:51.571Z,50.98
2023-02-18T00:13:13.764Z,50.64
2023-02-18T00:13:36.073Z,50.57
2023-02-18T00:14:02.264Z,50.59
2023-02-18T00:14:23.832Z,50.37
2023-02-18T00:14:46.854Z,50.44
2023-02-18T00:15:09.744Z,50.24
2023-02-18T00:15:31.372Z,50.26
2023-02-18T00:15:54.088Z,50.07
2023-02-18T00:16:17.108Z,50.14
2023-02-18T00:16:39.677Z,50.05
2023-02-18T00:17:03.762Z,49.89
2023-02-18T00:17:25.949Z,49.76
2023-02-18T00:17:47.534Z,49.84
2023-02-18T00:18:09.503Z,49.84
2023-02-18T00:18:32.586Z,49.93
2023-02-18T00:18:56.883Z,50.30
2023-02-18T00:19:20.163Z,50.38
2023-02-18T00:19:41.760Z,50.54
2023-02-18T00:20:06.996Z,50.31
2023-02-18T00:20:29.626Z,50.27
2023-02-18T00:20:51.610Z,50.66
2023-02-18T00:21:13.649Z,50.62
2023-02-18T00:21:36.932Z,50.37
2023-02-18T00:21:58.576Z,50.34
2023-02-18T00:22:22.099Z,50.35
2023-02-18T00:22:43.756Z,50.44
2023-02-18T00:23:06.564Z,50.23
2023-02-18T00:23:28.435Z,50.43
2023-02-18T00:23:50.241Z,50.40
2023-02-18T00:24:15.093Z,50.09
2023-02-18T00:24:37.683Z,50.21
2023-02-18T00:24:59.404Z,49.98
2023-02-18T00:25:21.262Z,50.22
2023-02-18T00:25:42.886Z,50.06
2023-02-18T00:26:09.108Z,50.05
2023-02-18T00:26:31.080Z,50.21
2023-02-18T00:26:53.264Z,50.01
2023-02-18T00:27:16.447Z,50.16
2023-02-18T00:27:38.169Z,49.86
2023-02-18T00:27:59.857Z,50.03
2023-02-18T00:28:21.699Z,49.90
2023-02-18T00:28:45.559Z,49.94
2023-02-18T00:29:09.991Z,49.89
2023-02-18T00:29:32.126Z,49.76
2023-02-18T00:29:53.781Z,49.68
2023-02-18T00:30:17.388Z,49.84
2023-02-18T00:30:41.337Z,49.80
2023-02-18T00:31:07.021Z,49.65
2023-02-18T00:31:30.507Z,49.69
2023-02-18T00:31:55.279Z,49.58
2023-02-18T00:32:17.585Z,49.50
2023-02-18T00:32:40.516Z,49.42
2023-02-18T00:33:03.874Z,49.44
2023-02-18T00:33:25.592Z,49.30
2023-02-18T00:33:49.251Z,49.56
2023-02-18T00:34:13.380Z,49.34
2023-02-18T00:34:34.982Z,49.37
2023-02-18T00:34:58.756Z,49.58
2023-02-18T00:35:24.212Z,49.45
2023-02-18T00:35:46.915Z,49.83
2023-02-18T00:36:12.329Z,49.77
2023-02-18T00:36:35.768Z,49.61
2023-02-18T00:36:58.699Z,49.57
2023-02-18T00:37:20.404Z,49.52
2023-02-18T00:37:42.429Z,49.60
2023-02-18T00:38:05.438Z,49.59
2023-02-18T00:38:30.857Z,49.80
2023-02-18T00:39:02.881Z,49.74
2023-02-18T00:39:27.287Z,49.86
2023-02-18T00:39:54.349Z,49.76
2023-02-18T00:40:21.802Z,49.94
2023-02-18T00:41:08.290Z,50.27
2023-02-18T00:42:40.709Z,50.45
2023-02-18T00:43:05.667Z,50.95
2023-02-18T00:43:33.767Z,50.80
2023-02-18T00:43:58.127Z,51.10
2023-02-18T00:44:27.670Z,50.84
2023-02-18T00:44:55.784Z,51.07
2023-02-18T00:45:27.010Z,50.93
2023-02-18T00:45:56.408Z,50.97
2023-02-18T00:46:21.721Z,50.99
2023-02-18T00:46:48.079Z,50.91
2023-02-18T00:47:14.921Z,50.85
2023-02-18T00:47:38.767Z,50.84
2023-02-18T00:48:02.019Z,50.63
2023-02-18T00:48:26.037Z,50.53
2023-02-18T00:49:04.324Z,50.52
2023-02-18T00:49:27.759Z,50.55
2023-02-18T00:49:53.006Z,50.47
2023-02-18T00:50:23.665Z,50.62
2023-02-18T00:50:48.602Z,50.55
2023-02-18T00:51:12.385Z,50.49
2023-02-18T00:51:41.127Z,50.32
2023-02-18T00:52:10.135Z,50.45
2023-02-18T00:52:33.060Z,50.31
2023-02-18T00:52:59.067Z,50.12
2023-02-18T00:53:26.065Z,50.39
2023-02-18T00:54:01.021Z,50.46
2023-02-18T00:54:26.024Z,50.42
2023-02-18T00:55:16.468Z,50.50
2023-02-18T00:55:49.223Z,50.31
2023-02-18T00:56:17.704Z,50.34
2023-02-18T00:56:56.510Z,50.65
2023-02-18T00:57:24.207Z,51.00
2023-02-18T00:57:54.315Z,51.20
2023-02-18T00:58:31.208Z,51.02
2023-02-18T00:59:08.994Z,50.92
2023-02-18T01:00:26.032Z,50.96
2023-02-18T01:00:53.986Z,51.11
2023-02-18T01:01:20.828Z,51.12
2023-02-18T01:01:48.621Z,51.28
2023-02-18T01:02:15.685Z,51.27
2023-02-18T01:03:06.808Z,51.23
2023-02-18T01:04:47.804Z,51.72
2023-02-18T01:05:31.237Z,51.60
2023-02-18T01:06:25.122Z,51.47
2023-02-18T01:07:22.467Z,51.07
2023-02-18T01:08:41.487Z,50.85
2023-02-18T01:10:06.250Z,50.73
2023-02-18T01:10:46.408Z,51.06
2023-02-18T01:16:26.401Z,50.91
2023-02-18T01:29:05.966Z,50.18
2023-02-18T01:31:30.102Z,50.18
2023-02-18T01:32:27.978Z,50.03
2023-02-18T01:33:31.399Z,49.95
2023-02-18T01:34:27.807Z,49.70
2023-02-18T01:37:46.939Z,49.62
2023-02-18T01:38:10.192Z,49.65
2023-02-18T01:38:32.582Z,49.55
2023-02-18T01:38:54.338Z,49.63
2023-02-18T01:39:17.552Z,49.54
2023-02-18T01:39:39.382Z,49.58
2023-02-18T01:40:01.544Z,49.60
2023-02-18T01:40:28.881Z,49.62
2023-02-18T01:40:53.016Z,49.50
2023-02-18T01:41:17.181Z,49.64
2023-02-18T01:42:36.113Z,49.77
2023-02-18T01:42:58.002Z,49.59
2023-02-18T01:43:21.149Z,49.54
2023-02-18T01:43:43.260Z,49.63
2023-02-18T01:44:15.857Z,49.51
2023-02-18T01:44:42.253Z,49.38
2023-02-18T01:45:49.741Z,49.54
2023-02-18T01:46:18.534Z,49.28
2023-02-18T01:46:40.812Z,49.25
2023-02-18T01:47:02.657Z,49.25
2023-02-18T01:47:24.480Z,49.23
2023-02-18T01:47:48.005Z,49.21
2023-02-18T01:48:13.207Z,49.29
2023-02-18T01:48:39.670Z,49.44
2023-02-18T01:49:02.897Z,49.66
2023-02-18T01:49:32.753Z,49.81
2023-02-18T01:49:57.039Z,49.94
2023-02-18T01:50:19.354Z,50.02
2023-02-18T01:50:45.887Z,50.07
2023-02-18T01:51:12.390Z,50.11
2023-02-18T01:51:38.518Z,50.09
2023-02-18T01:52:04.126Z,49.96
2023-02-18T01:52:27.696Z,50.10
2023-02-18T01:52:50.901Z,49.92
2023-02-18T01:53:16.413Z,49.97
2023-02-18T01:53:44.979Z,50.04
2023-02-18T01:54:09.656Z,49.83
2023-02-18T01:54:34.251Z,49.81
2023-02-18T01:54:57.396Z,49.73
2023-02-18T01:55:20.222Z,49.70
2023-02-18T01:55:44.437Z,49.49
2023-02-18T01:56:11.121Z,49.35
2023-02-18T01:56:37.342Z,49.59
2023-02-18T01:57:03.512Z,49.69
2023-02-18T01:57:30.215Z,49.50
2023-02-18T01:57:51.988Z,49.42
2023-02-18T01:58:14.282Z,49.42
2023-02-18T01:58:37.704Z,49.34
2023-02-18T01:59:03.366Z,49.35
2023-02-18T01:59:28.429Z,49.27
2023-02-18T01:59:54.861Z,49.16
2023-02-18T02:00:21.517Z,49.31
2023-02-18T02:00:43.498Z,49.21
2023-02-18T02:01:06.404Z,49.38
2023-02-18T02:01:28.238Z,49.28
2023-02-18T02:01:51.243Z,49.40
2023-02-18T02:02:16.921Z,49.40
2023-02-18T02:02:43.526Z,49.47
2023-02-18T02:03:05.308Z,49.52
2023-02-18T02:03:27.054Z,49.56
2023-02-18T02:03:49.853Z,49.56
2023-02-18T02:04:12.360Z,49.62
2023-02-18T02:04:36.032Z,49.53
2023-02-18T02:04:58.092Z,49.62
2023-02-18T02:05:21.782Z,49.79
2023-02-18T02:05:46.009Z,49.77
2023-02-18T02:06:17.527Z,49.86
2023-02-18T02:06:39.532Z,49.86
2023-02-18T02:07:02.227Z,49.89
2023-02-18T02:07:26.041Z,49.87
2023-02-18T02:07:52.909Z,49.79
2023-02-18T02:08:14.692Z,49.71
2023-02-18T02:08:36.440Z,49.62
2023-02-18T02:09:03.121Z,49.67
2023-02-18T02:09:26.975Z,49.59
2023-02-18T02:09:50.969Z,49.47
2023-02-18T02:10:14.890Z,49.55
2023-02-18T02:10:53.095Z,49.82
2023-02-18T02:11:25.786Z,49.55
2023-02-18T02:12:27.014Z,49.54
2023-02-18T02:12:58.760Z,49.62
2023-02-18T02:13:28.942Z,49.64
2023-02-18T02:14:05.078Z,49.63
2023-02-18T02:14:46.052Z,49.81
2023-02-18T02:15:24.854Z,50.37
2023-02-18T02:15:51.454Z,50.61
2023-02-18T02:16:21.843Z,50.69
2023-02-18T02:16:50.685Z,50.63
2023-02-18T02:17:27.477Z,50.52
2023-02-18T02:18:03.491Z,50.51
2023-02-18T02:18:44.197Z,50.30
2023-02-18T02:19:30.110Z,50.57
2023-02-18T02:20:22.558Z,50.52
2023-02-18T02:21:10.984Z,50.39
2023-02-18T02:22:21.338Z,50.76
2023-02-18T02:23:18.420Z,51.22
2023-02-18T02:24:15.640Z,50.91
2023-02-18T02:25:09.706Z,51.26
2023-02-18T02:25:53.978Z,51.04
2023-02-18T02:26:45.429Z,50.93
2023-02-18T02:27:15.176Z,51.00
2023-02-18T02:28:20.284Z,50.77
2023-02-18T02:29:13.079Z,50.69
2023-02-18T02:30:14.652Z,50.68
2023-02-18T02:30:56.795Z,50.56
2023-02-18T02:31:41.878Z,50.44
2023-02-18T02:32:25.161Z,50.65
2023-02-18T02:33:27.304Z,50.56
2023-02-18T02:34:19.286Z,50.45
2023-02-18T02:34:51.874Z,50.77
2023-02-18T02:35:18.491Z,50.68
2023-02-18T02:35:44.896Z,50.65
2023-02-18T02:36:14.494Z,50.86
2023-02-18T02:36:44.878Z,50.68
2023-02-18T02:37:13.592Z,50.61
2023-02-18T02:37:43.247Z,50.77
2023-02-18T02:38:07.928Z,50.78
2023-02-18T02:38:36.563Z,50.83
2023-02-18T02:39:11.237Z,50.70
2023-02-18T02:39:41.767Z,50.72
2023-02-18T02:40:16.652Z,50.91
2023-02-18T02:40:46.037Z,50.94
2023-02-18T02:41:23.427Z,50.95
2023-02-18T02:41:52.606Z,51.10
2023-02-18T02:42:23.002Z,51.07
2023-02-18T02:42:52.030Z,51.26
2023-02-18T02:43:22.562Z,51.23
2023-02-18T02:43:53.589Z,51.03
2023-02-18T02:44:22.015Z,51.05
2023-02-18T02:44:53.666Z,51.27
2023-02-18T02:45:22.495Z,51.09
2023-02-18T02:45:54.691Z,50.81
2023-02-18T02:46:24.073Z,50.97
2023-02-18T02:46:48.069Z,51.06
2023-02-18T02:47:16.663Z,50.78
2023-02-18T02:47:45.897Z,50.99
2023-02-18T02:48:17.254Z,50.79
2023-02-18T02:48:46.574Z,50.78
2023-02-18T02:49:18.979Z,51.22
2023-02-18T02:49:51.134Z,51.69
2023-02-18T02:50:17.916Z,51.49
2023-02-18T02:50:47.454Z,51.30
2023-02-18T02:51:13.152Z,51.45
2023-02-18T02:51:41.338Z,51.34
2023-02-18T02:52:08.405Z,51.25
2023-02-18T02:52:33.035Z,51.16
2023-02-18T02:52:59.457Z,51.06
2023-02-18T02:53:26.227Z,51.13
2023-02-18T02:53:48.099Z,50.77
2023-02-18T02:54:14.305Z,50.81
2023-02-18T02:54:36.228Z,50.87
2023-02-18T02:54:58.972Z,50.92
2023-02-18T02:55:20.785Z,50.91
2023-02-18T02:55:44.930Z,51.02
2023-02-18T02:56:07.104Z,50.84
2023-02-18T02:56:30.300Z,50.94
2023-02-18T02:57:06.134Z,51.07
2023-02-18T02:57:44.840Z,50.99
2023-02-18T02:58:16.278Z,51.00
2023-02-18T02:58:37.993Z,50.78
2023-02-18T02:59:02.391Z,50.83
2023-02-18T02:59:30.488Z,50.76
2023-02-18T02:59:57.457Z,51.13
2023-02-18T03:00:23.662Z,50.99
2023-02-18T03:00:59.124Z,51.02
2023-02-18T03:01:36.637Z,51.30
2023-02-18T03:02:14.147Z,51.67
2023-02-18T03:02:54.584Z,52.00
2023-02-18T03:03:53.330Z,52.06
2023-02-18T03:04:43.485Z,52.66
2023-02-18T03:05:24.931Z,52.90
2023-02-18T03:06:03.272Z,52.36
2023-02-18T03:06:43.793Z,52.81
2023-02-18T03:07:20.643Z,52.81
2023-02-18T03:08:01.294Z,52.27
2023-02-18T03:08:48.114Z,52.30
2023-02-18T03:09:15.377Z,51.98
2023-02-18T03:09:52.607Z,51.62
2023-02-18T03:10:30.420Z,51.59
2023-02-18T03:11:00.946Z,51.52
2023-02-18T03:11:22.854Z,51.34
2023-02-18T03:11:53.340Z,51.21
2023-02-18T03:12:24.686Z,51.37
2023-02-18T03:13:00.110Z,51.26
2023-02-18T03:13:32.161Z,51.31
2023-02-18T03:14:02.485Z,51.60
2023-02-18T03:14:33.821Z,52.10
2023-02-18T03:15:04.945Z,52.19
2023-02-18T03:15:37.293Z,52.68
2023-02-18T03:16:12.099Z,52.60
2023-02-18T03:16:44.774Z,52.41
2023-02-18T03:17:15.632Z,52.63
2023-02-18T03:17:46.268Z,52.46
2023-02-18T03:18:17.347Z,52.44
2023-02-18T03:18:45.016Z,52.46
2023-02-18T03:19:12.672Z,52.21
2023-02-18T03:19:38.895Z,52.04
2023-02-18T03:20:09.508Z,52.10
2023-02-18T03:20:37.824Z,52.15
2023-02-18T03:21:06.265Z,51.98
2023-02-18T03:21:31.297Z,51.69
2023-02-18T03:21:58.017Z,51.63
2023-02-18T03:22:27.319Z,51.89
2023-02-18T03:22:53.641Z,52.57
2023-02-18T03:23:22.251Z,52.49
2023-02-18T03:23:49.532Z,52.58
2023-02-18T03:24:17.705Z,53.21
2023-02-18T03:24:42.585Z,52.99
2023-02-18T03:25:05.777Z,52.81
2023-02-18T03:25:29.070Z,52.76
2023-02-18T03:25:52.171Z,52.76
2023-02-18T03:26:16.677Z,53.03
2023-02-18T03:26:45.342Z,53.56
2023-02-18T03:27:14.952Z,53.41
2023-02-18T03:27:43.417Z,53.46
2023-02-18T03:28:09.656Z,53.65
2023-02-18T03:28:34.939Z,53.68
2023-02-18T03:29:02.372Z,53.76
2023-02-18T03:29:26.351Z,53.60
2023-02-18T03:29:52.736Z,53.58
2023-02-18T03:30:22.413Z,53.73
2023-02-18T03:30:48.140Z,53.89
2023-02-18T03:31:14.643Z,53.74
2023-02-18T03:31:41.592Z,53.76
2023-02-18T03:32:08.089Z,53.75
2023-02-18T03:32:33.056Z,53.68
2023-02-18T03:32:59.553Z,53.44
2023-02-18T03:33:26.873Z,53.58
2023-02-18T03:33:56.041Z,53.46
2023-02-18T03:34:24.506Z,53.37
2023-02-18T03:34:51.753Z,53.23
2023-02-18T03:35:16.846Z,53.17
2023-02-18T03:35:42.453Z,53.13
2023-02-18T03:36:06.188Z,52.85
2023-02-18T03:36:29.672Z,52.82
2023-02-18T03:36:52.067Z,52.80
2023-02-18T03:37:15.241Z,52.96
2023-02-18T03:37:43.225Z,52.94
2023-02-18T03:38:12.521Z,53.15
2023-02-18T03:38:38.137Z,53.91
2023-02-18T03:39:03.218Z,53.98
2023-02-18T03:39:30.457Z,53.93
2023-02-18T03:39:57.012Z,54.20
2023-02-18T03:40:20.010Z,54.10
2023-02-18T03:40:41.814Z,54.32
2023-02-18T03:41:06.478Z,54.12
2023-02-18T03:41:28.963Z,53.92
2023-02-18T03:41:51.415Z,53.94
2023-02-18T03:42:13.144Z,53.91
2023-02-18T03:42:35.129Z,53.79
2023-02-18T03:43:00.768Z,53.75
2023-02-18T03:43:23.278Z,53.54
2023-02-18T03:43:49.975Z,53.84
2023-02-18T03:44:12.635Z,53.83
2023-02-18T03:44:35.576Z,53.79
2023-02-18T03:44:57.372Z,53.51
2023-02-18T03:45:19.294Z,53.96
2023-02-18T03:45:41.361Z,53.78
2023-02-18T03:46:05.224Z,53.93
2023-02-18T03:46:27.663Z,53.74
2023-02-18T03:46:49.449Z,54.01
2023-02-18T03:47:11.897Z,53.88
2023-02-18T03:47:33.620Z,53.78
2023-02-18T03:47:56.860Z,53.83
2023-02-18T03:48:19.011Z,53.99
2023-02-18T03:48:40.931Z,53.89
2023-02-18T03:49:03.113Z,53.88
2023-02-18T03:49:24.721Z,53.58
2023-02-18T03:49:47.479Z,53.67
2023-02-18T03:50:10.435Z,53.76
2023-02-18T03:50:32.357Z,53.68
2023-02-18T03:50:55.482Z,53.71
2023-02-18T03:51:19.386Z,53.75
2023-02-18T03:51:43.168Z,53.91
2023-02-18T03:52:05.969Z,54.21
2023-02-18T03:52:27.794Z,54.54
2023-02-18T03:52:51.812Z,54.57
2023-02-18T03:53:13.586Z,54.74
2023-02-18T03:53:35.633Z,54.41
2023-02-18T03:53:57.637Z,54.57
2023-02-18T03:54:20.700Z,54.53
2023-02-18T03:54:42.751Z,54.58
2023-02-18T03:55:04.688Z,54.63
2023-02-18T03:55:26.525Z,54.46
2023-02-18T03:55:49.526Z,54.56
2023-02-18T03:56:11.558Z,54.88
2023-02-18T03:56:33.556Z,54.59
2023-02-18T03:56:55.577Z,54.68
2023-02-18T03:57:18.272Z,54.86
2023-02-18T03:57:40.089Z,54.89
2023-02-18T03:58:01.855Z,54.62
2023-02-18T03:58:23.477Z,54.46
2023-02-18T03:58:45.268Z,54.66
2023-02-18T03:59:07.967Z,54.55
2023-02-18T03:59:29.663Z,54.72
2023-02-18T03:59:52.597Z,54.55
2023-02-18T04:00:14.912Z,54.41
2023-02-18T04:00:37.661Z,54.53
2023-02-18T04:01:00.552Z,54.47
2023-02-18T04:01:23.055Z,54.44
2023-02-18T04:01:44.769Z,54.44
2023-02-18T04:02:09.695Z,54.70
2023-02-18T04:02:31.392Z,54.49
2023-02-18T04:02:54.135Z,54.64
2023-02-18T04:03:19.723Z,54.99
2023-02-18T04:03:42.428Z,55.27
2023-02-18T04:04:04.425Z,55.50
2023-02-18T04:04:26.310Z,55.65
2023-02-18T04:04:47.971Z,55.51
2023-02-18T04:05:10.017Z,55.58
2023-02-18T04:05:31.699Z,55.28
2023-02-18T04:05:55.954Z,55.43
2023-02-18T04:06:17.566Z,55.16
2023-02-18T04:06:39.251Z,55.11
2023-02-18T04:07:01.067Z,54.88
2023-02-18T04:07:23.759Z,55.05
2023-02-18T04:07:45.430Z,54.85
2023-02-18T04:08:07.250Z,54.92
2023-02-18T04:08:29.236Z,54.73
2023-02-18T04:08:52.294Z,54.84
2023-02-18T04:09:16.410Z,54.58
2023-02-18T04:09:39.947Z,54.63
2023-02-18T04:10:01.703Z,54.46
2023-02-18T04:10:23.536Z,54.61
2023-02-18T04:10:47.645Z,54.67
2023-02-18T04:11:11.713Z,54.56
2023-02-18T04:11:33.726Z,54.71
2023-02-18T04:11:55.494Z,54.47
2023-02-18T04:12:18.161Z,54.50
2023-02-18T04:12:40.224Z,54.48
2023-02-18T04:13:01.911Z,54.49
2023-02-18T04:13:24.002Z,54.36
2023-02-18T04:13:46.659Z,54.24
2023-02-18T04:14:13.041Z,54.43
2023-02-18T04:14:34.734Z,54.49
2023-02-18T04:14:56.374Z,54.34
2023-02-18T04:15:18.349Z,54.31
2023-02-18T04:15:41.082Z,54.48
2023-02-18T04:16:02.820Z,54.54
2023-02-18T04:16:25.553Z,54.47
2023-02-18T04:16:47.432Z,54.51
2023-02-18T04:17:10.230Z,54.45
2023-02-18T04:17:33.127Z,54.50
2023-02-18T04:17:55.462Z,54.43
2023-02-18T04:18:17.772Z,54.46
2023-02-18T04:18:42.102Z,54.14
2023-02-18T04:19:03.851Z,54.23
2023-02-18T04:19:25.487Z,54.36
2023-02-18T04:19:47.204Z,54.27
2023-02-18T04:20:10.723Z,54.14
2023-02-18T04:20:32.413Z,54.21
2023-02-18T04:20:55.439Z,54.15
2023-02-18T04:21:17.142Z,54.19
2023-02-18T04:21:39.840Z,53.93
2023-02-18T04:22:06.190Z,53.97
2023-02-18T04:22:28.223Z,53.83
2023-02-18T04:22:49.882Z,54.15
2023-02-18T04:23:12.799Z,54.04
2023-02-18T04:23:34.753Z,53.81
2023-02-18T04:23:57.809Z,54.06
2023-02-18T04:24:19.492Z,53.97
2023-02-18T04:24:42.747Z,53.75
2023-02-18T04:25:04.938Z,53.80
2023-02-18T04:25:27.682Z,53.56
2023-02-18T04:25:49.344Z,53.54
2023-02-18T04:26:12.287Z,53.29
2023-02-18T04:26:34.248Z,53.86
2023-02-18T04:26:56.187Z,54.03
2023-02-18T04:27:17.824Z,53.80
2023-02-18T04:27:39.642Z,53.81
2023-02-18T04:28:02.508Z,54.15
2023-02-18T04:28:24.310Z,54.12
2023-02-18T04:28:46.263Z,54.19
2023-02-18T04:29:08.104Z,54.16
2023-02-18T04:29:30.884Z,54.40
2023-02-18T04:29:52.620Z,54.26
2023-02-18T04:30:17.286Z,54.21
2023-02-18T04:30:40.489Z,54.51
2023-02-18T04:31:03.320Z,54.48
2023-02-18T04:31:25.120Z,54.65
2023-02-18T04:31:46.990Z,54.52
2023-02-18T04:32:08.963Z,54.39
2023-02-18T04:32:30.985Z,54.10
2023-02-18T04:32:53.830Z,54.17
2023-02-18T04:33:16.309Z,54.19
2023-02-18T04:33:38.003Z,54.01
2023-02-18T04:33:59.679Z,53.87
2023-02-18T04:34:22.464Z,53.78
2023-02-18T04:34:45.563Z,53.78
2023-02-18T04:35:10.074Z,53.93
2023-02-18T04:35:31.785Z,53.96
2023-02-18T04:35:55.739Z,53.66
2023-02-18T04:36:17.417Z,53.69
2023-02-18T04:36:39.126Z,54.05
2023-02-18T04:37:02.082Z,53.84
2023-02-18T04:37:23.774Z,53.81
2023-02-18T04:37:45.517Z,53.98
2023-02-18T04:38:07.971Z,54.19
2023-02-18T04:38:31.045Z,54.21
2023-02-18T04:38:52.790Z,54.24
2023-02-18T04:39:14.536Z,54.08
2023-02-18T04:39:36.303Z,53.75
2023-02-18T04:39:58.953Z,53.61
2023-02-18T04:40:21.064Z,53.54
2023-02-18T04:40:42.764Z,53.42
2023-02-18T04:41:04.928Z,53.43
2023-02-18T04:41:26.679Z,53.20
2023-02-18T04:41:49.334Z,53.13
2023-02-18T04:42:11.215Z,52.89
2023-02-18T04:42:33.180Z,53.06
2023-02-18T04:42:54.806Z,52.94
2023-02-18T04:43:20.644Z,52.83
2023-02-18T04:43:42.356Z,53.05
2023-02-18T04:44:04.120Z,52.92
2023-02-18T04:44:25.777Z,53.14
2023-02-18T04:44:47.807Z,52.91
2023-02-18T04:45:13.551Z,53.11
2023-02-18T04:45:35.264Z,52.85
2023-02-18T04:45:58.258Z,53.13
2023-02-18T04:46:19.972Z,53.39
2023-02-18T04:46:42.784Z,53.24
2023-02-18T04:47:04.780Z,53.35
2023-02-18T04:47:27.128Z,53.27
2023-02-18T04:47:50.344Z,53.51
2023-02-18T04:48:13.592Z,53.55
2023-02-18T04:48:35.337Z,53.99
2023-02-18T04:48:57.504Z,54.33
2023-02-18T04:49:19.251Z,54.40
2023-02-18T04:49:41.888Z,54.32
2023-02-18T04:50:04.388Z,54.30
2023-02-18T04:50:26.157Z,54.25
2023-02-18T04:50:48.922Z,54.26
2023-02-18T04:51:12.995Z,54.27
2023-02-18T04:51:34.657Z,54.04
2023-02-18T04:51:56.299Z,53.99
2023-02-18T04:52:18.220Z,53.47
2023-02-18T04:52:40.986Z,53.67
2023-02-18T04:53:02.998Z,54.00
2023-02-18T04:53:25.770Z,54.07
2023-02-18T04:53:47.548Z,54.06
2023-02-18T04:54:10.403Z,54.18
2023-02-18T04:54:32.396Z,54.21
2023-02-18T04:54:54.043Z,54.23
2023-02-18T04:55:15.972Z,54.34
2023-02-18T04:55:37.638Z,54.20
2023-02-18T04:56:01.554Z,54.46
2023-02-18T04:56:23.218Z,54.58
2023-02-18T04:56:45.193Z,54.65
2023-02-18T04:57:07.159Z,55.00
2023-02-18T04:57:28.909Z,54.55
2023-02-18T04:57:51.702Z,54.78
2023-02-18T04:58:13.379Z,54.68
2023-02-18T04:58:36.335Z,54.52
2023-02-18T04:58:57.994Z,54.46
2023-02-18T04:59:20.629Z,54.97
2023-02-18T04:59:42.485Z,55.27
2023-02-18T05:00:06.880Z,55.22
2023-02-18T05:00:29.886Z,55.22
2023-02-18T05:00:53.762Z,55.50
2023-02-18T05:01:15.888Z,55.02
2023-02-18T05:01:37.665Z,55.17
2023-02-18T05:02:00.346Z,55.10
2023-02-18T05:02:21.973Z,54.81
2023-02-18T05:02:44.441Z,54.55
2023-02-18T05:03:06.192Z,54.69
2023-02-18T05:03:28.729Z,54.50
2023-02-18T05:03:51.680Z,54.46
2023-02-18T05:04:13.537Z,54.11
2023-02-18T05:04:35.458Z,54.38
2023-02-18T05:04:57.397Z,54.38
2023-02-18T05:05:20.153Z,54.41
2023-02-18T05:05:41.837Z,54.48
2023-02-18T05:06:04.166Z,54.11
2023-02-18T05:06:28.816Z,54.30
2023-02-18T05:06:51.542Z,54.21
2023-02-18T05:07:13.290Z,54.38
2023-02-18T05:07:35.368Z,54.36
2023-02-18T05:07:57.154Z,54.23
2023-02-18T05:08:20.087Z,53.97
2023-02-18T05:08:41.764Z,54.31
2023-02-18T05:09:03.614Z,54.00
2023-02-18T05:09:25.548Z,54.21
2023-02-18T05:09:47.652Z,54.47
2023-02-18T05:10:14.607Z,54.21
2023-02-18T05:10:37.790Z,54.37
2023-02-18T05:10:59.771Z,54.48
2023-02-18T05:11:21.511Z,54.86
2023-02-18T05:11:45.694Z,54.54
2023-02-18T05:12:07.696Z,54.75
2023-02-18T05:12:29.626Z,54.94
2023-02-18T05:12:51.383Z,55.06
2023-02-18T05:13:14.495Z,55.09
2023-02-18T05:13:36.269Z,55.24
2023-02-18T05:13:57.951Z,55.30
2023-02-18T05:14:19.658Z,55.51
2023-02-18T05:14:41.472Z,55.45
2023-02-18T05:15:04.490Z,55.59
2023-02-18T05:15:26.523Z,55.87
2023-02-18T05:15:48.447Z,56.24
2023-02-18T05:16:10.635Z,56.77
2023-02-18T05:16:33.552Z,57.13
2023-02-18T05:16:55.719Z,57.01
2023-02-18T05:17:17.487Z,57.14
2023-02-18T05:17:39.241Z,56.57
2023-02-18T05:18:01.287Z,56.64
2023-02-18T05:18:23.942Z,56.49
2023-02-18T05:18:45.715Z,56.17
2023-02-18T05:19:07.672Z,56.22
2023-02-18T05:19:29.343Z,56.30
2023-02-18T05:19:52.074Z,55.89
2023-02-18T05:20:13.893Z,56.00
2023-02-18T05:20:35.701Z,55.85
2023-02-18T05:20:57.520Z,56.01
2023-02-18T05:21:20.276Z,56.49
2023-02-18T05:21:44.280Z,56.51
2023-02-18T05:22:06.012Z,56.25
2023-02-18T05:22:27.691Z,56.10
2023-02-18T05:22:50.328Z,56.14
2023-02-18T05:23:12.253Z,56.49
2023-02-18T05:23:34.325Z,56.39
2023-02-18T05:23:56.098Z,56.55
2023-02-18T05:24:17.820Z,56.49
2023-02-18T05:24:40.498Z,56.56
2023-02-18T05:25:02.453Z,56.46
2023-02-18T05:25:24.854Z,56.54
2023-02-18T05:25:46.518Z,56.83
2023-02-18T05:26:11.961Z,57.34
2023-02-18T05:26:35.361Z,57.68
2023-02-18T05:26:57.182Z,58.38
2023-02-18T05:27:18.807Z,58.56
2023-02-18T05:27:41.779Z,58.49
2023-02-18T05:28:03.652Z,58.02
2023-02-18T05:28:25.716Z,58.14
2023-02-18T05:28:47.532Z,58.04
2023-02-18T05:29:09.467Z,58.14
2023-02-18T05:29:32.108Z,58.07
2023-02-18T05:29:53.793Z,58.38
2023-02-18T05:30:15.665Z,57.99
2023-02-18T05:30:37.518Z,58.04
2023-02-18T05:31:00.232Z,57.83
2023-02-18T05:31:22.078Z,57.85
2023-02-18T05:31:43.983Z,57.69
2023-02-18T05:32:05.940Z,57.75
2023-02-18T05:32:28.589Z,57.42
2023-02-18T05:32:50.260Z,57.66
2023-02-18T05:33:11.981Z,57.59
2023-02-18T05:33:33.775Z,57.80
2023-02-18T05:33:55.456Z,57.80
2023-02-18T05:34:18.325Z,57.54
2023-02-18T05:34:40.141Z,57.41
2023-02-18T05:35:01.799Z,57.38
2023-02-18T05:35:23.650Z,57.35
2023-02-18T05:35:45.364Z,57.43
2023-02-18T05:36:08.643Z,57.85
2023-02-18T05:36:31.669Z,57.76
2023-02-18T05:36:54.728Z,57.56
2023-02-18T05:37:18.528Z,57.88
2023-02-18T05:37:41.185Z,57.95
2023-02-18T05:38:02.894Z,58.23
2023-02-18T05:38:24.671Z,58.38
2023-02-18T05:38:46.668Z,57.83
2023-02-18T05:39:08.316Z,57.81
2023-02-18T05:39:31.252Z,57.94
2023-02-18T05:39:54.048Z,57.83
2023-02-18T05:40:15.722Z,57.34
2023-02-18T05:40:37.674Z,57.53
2023-02-18T05:40:59.945Z,57.30
2023-02-18T05:41:22.728Z,57.55
2023-02-18T05:41:44.847Z,57.25
2023-02-18T05:42:06.960Z,57.31
2023-02-18T05:42:28.699Z,57.01
2023-02-18T05:42:50.598Z,57.17
2023-02-18T05:43:13.654Z,57.08
2023-02-18T05:43:55.424Z,57.04
2023-02-18T05:44:33.492Z,57.32
2023-02-18T05:44:55.114Z,57.30
2023-02-18T05:45:16.892Z,57.28
2023-02-18T05:45:39.542Z,57.31
2023-02-18T05:46:01.236Z,57.33
2023-02-18T05:46:23.371Z,57.15
2023-02-18T05:46:45.144Z,57.21
2023-02-18T05:47:11.537Z,57.54
2023-02-18T05:47:33.484Z,57.71
2023-02-18T05:47:55.140Z,58.25
2023-02-18T05:48:17.194Z,58.34
2023-02-18T05:48:38.880Z,58.51
2023-02-18T05:49:01.549Z,58.75
2023-02-18T05:49:23.567Z,58.43
2023-02-18T05:49:45.604Z,58.33
2023-02-18T05:50:08.840Z,58.17
2023-02-18T05:50:31.538Z,57.77
2023-02-18T05:50:54.407Z,57.74
2023-02-18T05:51:16.170Z,57.61
2023-02-18T05:51:37.910Z,57.60
2023-02-18T05:52:01.351Z,57.34
2023-02-18T05:52:24.300Z,57.31
2023-02-18T05:52:46.098Z,57.10
2023-02-18T05:53:07.782Z,57.05
2023-02-18T05:53:29.439Z,56.86
2023-02-18T05:53:52.169Z,56.90
2023-02-18T05:54:14.012Z,56.96
2023-02-18T05:54:36.595Z,56.99
2023-02-18T05:54:59.442Z,57.08
2023-02-18T05:55:21.296Z,56.81
2023-02-18T05:55:43.057Z,56.92
2023-02-18T05:56:05.657Z,56.82
2023-02-18T05:56:28.335Z,56.40
2023-02-18T05:56:50.443Z,56.76
2023-02-18T05:57:14.042Z,56.84
2023-02-18T05:57:36.126Z,56.72
2023-02-18T05:57:59.040Z,56.76
2023-02-18T05:58:20.716Z,57.15
2023-02-18T05:58:42.363Z,57.33